Time;durP1;ratioP1;P1;durP2;ratioP2;P2;SDS_P1;SDS_P2;PMS_P1;PMS_P2;Temp;Humidity;BMP_temperature;BMP_pressure;BME280_temperature;BME280_humidity;BME280_pressure;Samples;Min_cycle;Max_cycle;Signal;HPM_P1;HPM_P2
2023/03/04 00:00:27;;;;;;;13.27;11.40;;;;;;;;;;6069859;23;20026;-90
2023/03/04 00:02:55;;;;;;;18.80;13.50;;;;;;;;;;6089480;23;20018;-76
2023/03/04 00:05:26;;;;;;;22.95;16.52;;;;;;;;;;6093598;23;20011;-77
2023/03/04 00:07:53;;;;;;;21.65;15.63;;;;;;;;;;6046340;23;20022;-77
2023/03/04 00:10:20;;;;;;;18.48;14.90;;;;;;;;;;6098556;23;20014;-78
2023/03/04 00:12:50;;;;;;;19.67;14.70;;;;;;;;;;6041864;23;20026;-78
2023/03/04 00:15:17;;;;;;;20.17;13.93;;;;;;;;;;6065511;23;20026;-78
2023/03/04 00:17:45;;;;;;;23.23;17.10;;;;;;;;;;6067043;23;20015;-77
2023/03/04 00:20:12;;;;;;;21.38;15.20;;;;;;;;;;6065101;23;20016;-78
2023/03/04 00:22:43;;;;;;;18.55;13.68;;;;;;;;;;6066381;23;20023;-78
2023/03/04 00:25:11;;;;;;;20.42;14.68;;;;;;;;;;6074830;23;20026;-78
2023/03/04 00:27:38;;;;;;;24.63;14.88;;;;;;;;;;6066416;23;20359;-78
2023/03/04 00:30:08;;;;;;;23.58;15.13;;;;;;;;;;6064719;23;20015;-78
2023/03/04 00:32:36;;;;;;;23.80;15.55;;;;;;;;;;6065480;23;20027;-78
2023/03/04 00:35:04;;;;;;;18.98;14.13;;;;;;;;;;6041377;23;20372;-78
2023/03/04 00:37:32;;;;;;;24.45;14.52;;;;;;;;;;6090490;23;20021;-78
2023/03/04 00:40:06;;;;;;;20.15;15.05;;;;;;;;;;6064633;23;20019;-78
2023/03/04 00:42:34;;;;;;;26.55;15.55;;;;;;;;;;6065551;23;20023;-78
2023/03/04 00:45:04;;;;;;;26.17;17.30;;;;;;;;;;6065780;23;20023;-78
2023/03/04 00:47:34;;;;;;;19.33;16.05;;;;;;;;;;6042258;23;20019;-77
2023/03/04 00:50:01;;;;;;;25.20;14.80;;;;;;;;;;6089405;23;20019;-77
2023/03/04 00:52:28;;;;;;;22.23;12.45;;;;;;;;;;6065851;23;20018;-77
2023/03/04 00:54:55;;;;;;;21.90;13.50;;;;;;;;;;6098906;23;20018;-77
2023/03/04 00:57:24;;;;;;;25.77;15.13;;;;;;;;;;6065781;23;20021;-77
2023/03/04 00:59:53;;;;;;;25.20;15.88;;;;;;;;;;6098349;23;20029;-77
2023/03/04 01:02:21;;;;;;;22.15;14.02;;;;;;;;;;6041283;23;20364;-77
2023/03/04 01:04:48;;;;;;;20.70;14.50;;;;;;;;;;6065622;23;20026;-78
2023/03/04 01:07:16;;;;;;;18.08;12.95;;;;;;;;;;6089283;23;20478;-78
2023/03/04 01:09:43;;;;;;;18.92;13.90;;;;;;;;;;6074472;23;20344;-78
2023/03/04 01:12:12;;;;;;;21.17;13.13;;;;;;;;;;6041957;23;20490;-78
2023/03/04 01:14:45;;;;;;;20.63;14.02;;;;;;;;;;6064862;23;20033;-77
2023/03/04 01:17:13;;;;;;;22.05;14.43;;;;;;;;;;6067227;23;20011;-77
2023/03/04 01:19:43;;;;;;;20.20;13.55;;;;;;;;;;6064828;23;20038;-77
2023/03/04 01:22:14;;;;;;;20.73;13.18;;;;;;;;;;6064690;23;20015;-77
2023/03/04 01:24:41;;;;;;;18.17;13.60;;;;;;;;;;6074250;23;20015;-77
2023/03/04 01:27:08;;;;;;;25.48;15.15;;;;;;;;;;6089478;23;20011;-77
2023/03/04 01:29:38;;;;;;;23.20;15.18;;;;;;;;;;6087262;23;20029;-77
2023/03/04 01:32:06;;;;;;;22.55;14.65;;;;;;;;;;6065549;23;20022;-77
2023/03/04 01:34:36;;;;;;;23.02;14.52;;;;;;;;;;6075645;23;20045;-77
2023/03/04 01:37:06;;;;;;;24.98;15.20;;;;;;;;;;6040397;23;20022;-77
2023/03/04 01:39:33;;;;;;;26.55;16.77;;;;;;;;;;6074563;23;20021;-77
2023/03/04 01:42:02;;;;;;;19.70;15.77;;;;;;;;;;6088071;23;20021;-77
2023/03/04 01:44:32;;;;;;;23.23;15.45;;;;;;;;;;6088372;23;20329;-77
2023/03/04 01:47:02;;;;;;;22.88;14.07;;;;;;;;;;6065699;23;20015;-77
2023/03/04 01:49:33;;;;;;;20.45;14.52;;;;;;;;;;6097569;23;20030;-77
2023/03/04 01:52:03;;;;;;;24.50;14.63;;;;;;;;;;6065619;23;20022;-77
2023/03/04 01:54:30;;;;;;;24.40;15.98;;;;;;;;;;6063828;23;20015;-77
2023/03/04 01:57:00;;;;;;;23.92;15.65;;;;;;;;;;6064564;23;20041;-77
2023/03/04 01:59:30;;;;;;;25.20;17.67;;;;;;;;;;6040825;23;20388;-77
2023/03/04 02:02:00;;;;;;;26.33;17.85;;;;;;;;;;6064784;23;20029;-77
2023/03/04 02:04:33;;;;;;;21.45;14.38;;;;;;;;;;6098123;23;20022;-77
2023/03/04 02:07:04;;;;;;;28.40;16.15;;;;;;;;;;6088335;23;20037;-77
2023/03/04 02:09:32;;;;;;;25.73;16.75;;;;;;;;;;6074526;23;20022;-77
2023/03/04 02:12:00;;;;;;;27.77;15.85;;;;;;;;;;6088629;23;20372;-77
2023/03/04 02:14:30;;;;;;;21.45;15.27;;;;;;;;;;6063528;23;20034;-77
2023/03/04 02:17:00;;;;;;;22.70;15.02;;;;;;;;;;6066632;23;20025;-77
2023/03/04 02:19:37;;;;;;;33.67;18.80;;;;;;;;;;6064813;23;20026;-77
2023/03/04 02:22:04;;;;;;;23.48;15.55;;;;;;;;;;6074116;23;20022;-78
2023/03/04 02:24:36;;;;;;;21.58;16.23;;;;;;;;;;6063929;23;20476;-77
2023/03/04 02:27:05;;;;;;;22.52;15.13;;;;;;;;;;6075208;23;20038;-77
2023/03/04 02:29:32;;;;;;;24.17;17.05;;;;;;;;;;6064773;23;20022;-77
2023/03/04 02:31:59;;;;;;;18.52;16.58;;;;;;;;;;6088576;23;20025;-77
2023/03/04 02:34:29;;;;;;;22.02;16.52;;;;;;;;;;6088930;23;20015;-77
2023/03/04 02:36:56;;;;;;;21.15;15.05;;;;;;;;;;6089110;23;20037;-77
2023/03/04 02:39:31;;;;;;;23.38;16.50;;;;;;;;;;6088563;23;20601;-77
2023/03/04 02:41:59;;;;;;;29.48;15.60;;;;;;;;;;6038376;23;20019;-77
2023/03/04 02:44:34;;;;;;;21.83;16.52;;;;;;;;;;6039969;23;20042;-77
2023/03/04 02:47:05;;;;;;;19.27;15.40;;;;;;;;;;6073923;23;20017;-77
2023/03/04 02:49:34;;;;;;;22.80;14.43;;;;;;;;;;6087796;23;20021;-77
2023/03/04 02:52:07;;;;;;;23.88;14.85;;;;;;;;;;6096032;23;20026;-77
2023/03/04 02:54:34;;;;;;;22.98;16.25;;;;;;;;;;6063574;23;20336;-77
2023/03/04 02:57:04;;;;;;;19.70;16.17;;;;;;;;;;6074280;23;20022;-77
2023/03/04 02:59:36;;;;;;;24.05;16.02;;;;;;;;;;6064375;23;20340;-77
2023/03/04 03:02:05;;;;;;;19.25;14.05;;;;;;;;;;6063997;23;20371;-77
2023/03/04 03:04:32;;;;;;;21.52;16.95;;;;;;;;;;6065380;23;20034;-77
2023/03/04 03:07:00;;;;;;;21.50;15.07;;;;;;;;;;6064668;23;20014;-77
2023/03/04 03:09:28;;;;;;;21.88;14.15;;;;;;;;;;6088395;23;20037;-77
2023/03/04 03:11:59;;;;;;;22.73;16.25;;;;;;;;;;6087146;23;20034;-77
2023/03/04 03:14:29;;;;;;;18.73;14.23;;;;;;;;;;6040104;23;20482;-77
2023/03/04 03:16:58;;;;;;;21.70;15.02;;;;;;;;;;6065023;23;20022;-77
2023/03/04 03:19:25;;;;;;;25.20;15.25;;;;;;;;;;6088107;23;20015;-77
2023/03/04 03:21:54;;;;;;;27.08;16.17;;;;;;;;;;6040737;23;20026;-77
2023/03/04 03:24:21;;;;;;;21.20;14.90;;;;;;;;;;6063947;23;20360;-77
2023/03/04 03:26:51;;;;;;;21.85;16.33;;;;;;;;;;6063865;23;20359;-77
2023/03/04 03:29:20;;;;;;;22.00;15.40;;;;;;;;;;6088427;23;20351;-77
2023/03/04 03:31:48;;;;;;;18.63;13.68;;;;;;;;;;6040657;23;20347;-77
2023/03/04 03:34:16;;;;;;;23.05;17.65;;;;;;;;;;6039727;23;20019;-77
2023/03/04 03:36:47;;;;;;;19.98;14.20;;;;;;;;;;6064996;23;20035;-77
2023/03/04 03:39:17;;;;;;;17.70;13.45;;;;;;;;;;6064203;23;20018;-77
2023/03/04 03:41:44;;;;;;;22.83;16.00;;;;;;;;;;6065573;23;20019;-77
2023/03/04 03:44:12;;;;;;;21.90;15.80;;;;;;;;;;6063960;23;20360;-77
2023/03/04 03:46:39;;;;;;;23.38;15.07;;;;;;;;;;6063771;23;20026;-77
2023/03/04 03:49:06;;;;;;;25.17;14.73;;;;;;;;;;6088622;23;20019;-77
2023/03/04 03:51:35;;;;;;;20.90;16.20;;;;;;;;;;6064398;23;20019;-77
2023/03/04 03:54:04;;;;;;;25.92;14.90;;;;;;;;;;6063097;23;20030;-77
2023/03/04 03:56:34;;;;;;;20.77;15.20;;;;;;;;;;6064818;23;20022;-77
2023/03/04 03:59:03;;;;;;;20.52;13.90;;;;;;;;;;6065263;23;20022;-77
2023/03/04 04:01:32;;;;;;;19.25;13.85;;;;;;;;;;6086967;23;20019;-77
2023/03/04 04:03:59;;;;;;;23.88;16.27;;;;;;;;;;6064425;23;20026;-77
2023/03/04 04:06:29;;;;;;;17.90;12.90;;;;;;;;;;6065670;23;20034;-77
2023/03/04 04:09:00;;;;;;;20.02;14.63;;;;;;;;;;6072823;23;20022;-77
2023/03/04 04:11:27;;;;;;;24.38;15.20;;;;;;;;;;6040126;23;20023;-77
2023/03/04 04:13:57;;;;;;;18.05;14.40;;;;;;;;;;6087511;23;20476;-77
2023/03/04 04:16:24;;;;;;;20.77;14.65;;;;;;;;;;6066544;23;20422;-77
2023/03/04 04:18:51;;;;;;;25.30;14.40;;;;;;;;;;6073020;23;20018;-78
2023/03/04 04:21:18;;;;;;;19.98;15.32;;;;;;;;;;6039579;23;20026;-77
2023/03/04 04:23:45;;;;;;;21.73;16.85;;;;;;;;;;6064377;23;20026;-77
2023/03/04 04:26:14;;;;;;;27.85;16.75;;;;;;;;;;6065262;23;20019;-78
2023/03/04 04:28:43;;;;;;;17.52;13.98;;;;;;;;;;6076642;23;20018;-77
2023/03/04 04:31:11;;;;;;;23.77;15.65;;;;;;;;;;6042655;23;20026;-77
2023/03/04 04:33:40;;;;;;;23.75;16.23;;;;;;;;;;6067146;23;20477;-77
2023/03/04 04:36:09;;;;;;;22.92;17.63;;;;;;;;;;6066560;23;20019;-77
2023/03/04 04:38:37;;;;;;;17.40;12.45;;;;;;;;;;6076817;23;20015;-77
2023/03/04 04:41:04;;;;;;;22.02;14.18;;;;;;;;;;6076949;23;20025;-77
2023/03/04 04:43:33;;;;;;;21.33;14.82;;;;;;;;;;6089181;23;20363;-77
2023/03/04 04:46:00;;;;;;;21.02;15.73;;;;;;;;;;6068029;23;20022;-77
2023/03/04 04:48:30;;;;;;;21.20;14.85;;;;;;;;;;6066800;23;20011;-77
2023/03/04 04:50:57;;;;;;;25.40;14.90;;;;;;;;;;6066776;23;20482;-77
2023/03/04 04:53:26;;;;;;;19.98;15.07;;;;;;;;;;6089458;23;20015;-77
2023/03/04 04:55:59;;;;;;;20.25;15.18;;;;;;;;;;6065289;23;20026;-77
2023/03/04 04:58:28;;;;;;;23.77;14.23;;;;;;;;;;6065023;23;20023;-77
2023/03/04 05:00:57;;;;;;;20.35;14.18;;;;;;;;;;6065635;23;20019;-77
2023/03/04 05:03:25;;;;;;;19.65;13.77;;;;;;;;;;6064693;23;20015;-77
2023/03/04 05:05:52;;;;;;;22.33;15.07;;;;;;;;;;6065522;23;20026;-77
2023/03/04 05:08:19;;;;;;;20.23;13.43;;;;;;;;;;6065432;23;20014;-77
2023/03/04 05:10:47;;;;;;;19.30;14.02;;;;;;;;;;6088305;23;20019;-77
2023/03/04 05:13:15;;;;;;;16.65;12.93;;;;;;;;;;6088363;23;20019;-78
2023/03/04 05:15:42;;;;;;;21.95;14.93;;;;;;;;;;6064039;23;20344;-77
2023/03/04 05:18:10;;;;;;;16.48;14.48;;;;;;;;;;6075231;23;20027;-77
2023/03/04 05:20:38;;;;;;;18.48;14.15;;;;;;;;;;6065533;23;20026;-78
2023/03/04 05:23:05;;;;;;;17.60;13.50;;;;;;;;;;6041125;23;20506;-77
2023/03/04 05:25:34;;;;;;;20.15;13.90;;;;;;;;;;6066385;23;20474;-78
2023/03/04 05:28:03;;;;;;;18.15;14.23;;;;;;;;;;6065414;23;20015;-78
2023/03/04 05:30:33;;;;;;;19.25;14.10;;;;;;;;;;6065792;23;20393;-78
2023/03/04 05:33:00;;;;;;;19.90;15.02;;;;;;;;;;6064785;23;20026;-77
2023/03/04 05:35:31;;;;;;;17.40;13.93;;;;;;;;;;6064790;23;20363;-77
2023/03/04 05:38:01;;;;;;;20.13;13.68;;;;;;;;;;6064888;23;20022;-77
2023/03/04 05:40:31;;;;;;;26.58;15.15;;;;;;;;;;6064765;23;20363;-78
2023/03/04 05:42:58;;;;;;;22.33;14.85;;;;;;;;;;6065217;23;20556;-78
2023/03/04 05:45:26;;;;;;;22.90;16.05;;;;;;;;;;6066468;23;20022;-78
2023/03/04 05:47:53;;;;;;;20.08;14.38;;;;;;;;;;6065652;23;20019;-77
2023/03/04 05:50:23;;;;;;;16.73;14.65;;;;;;;;;;6066351;23;20016;-78
2023/03/04 05:52:54;;;;;;;21.33;15.23;;;;;;;;;;6064965;23;20014;-78
2023/03/04 05:55:24;;;;;;;29.95;16.55;;;;;;;;;;6098264;23;20352;-77
2023/03/04 05:57:54;;;;;;;27.25;16.38;;;;;;;;;;6075830;23;20026;-77
2023/03/04 06:00:21;;;;;;;25.20;17.67;;;;;;;;;;6089036;23;20019;-77
2023/03/04 06:02:48;;;;;;;24.23;15.65;;;;;;;;;;6066668;23;20014;-77
2023/03/04 06:05:16;;;;;;;18.38;14.23;;;;;;;;;;6018853;23;20030;-77
2023/03/04 06:07:44;;;;;;;25.08;14.70;;;;;;;;;;6041838;23;20027;-77
2023/03/04 06:10:16;;;;;;;21.80;15.40;;;;;;;;;;6040810;23;20030;-77
2023/03/04 06:12:43;;;;;;;18.05;14.88;;;;;;;;;;6074305;23;20014;-77
2023/03/04 06:15:13;;;;;;;19.23;13.27;;;;;;;;;;6064113;23;20026;-77
2023/03/04 06:17:42;;;;;;;25.00;17.25;;;;;;;;;;6065816;23;20379;-77
2023/03/04 06:20:11;;;;;;;24.75;15.93;;;;;;;;;;6066096;23;20015;-77
2023/03/04 06:22:40;;;;;;;27.45;16.45;;;;;;;;;;6016914;23;20042;-77
2023/03/04 06:25:08;;;;;;;23.65;15.23;;;;;;;;;;6039341;23;20018;-77
2023/03/04 06:27:39;;;;;;;20.58;15.18;;;;;;;;;;6049466;23;20021;-77
2023/03/04 06:30:07;;;;;;;20.08;15.02;;;;;;;;;;6040187;23;20014;-77
2023/03/04 06:32:37;;;;;;;20.02;14.93;;;;;;;;;;6075015;23;20025;-77
2023/03/04 06:35:05;;;;;;;22.38;16.40;;;;;;;;;;6074049;23;20030;-77
2023/03/04 06:37:32;;;;;;;22.35;16.77;;;;;;;;;;6041298;23;20019;-77
2023/03/04 06:40:02;;;;;;;27.58;17.85;;;;;;;;;;6065460;23;20022;-77
2023/03/04 06:42:29;;;;;;;21.55;15.90;;;;;;;;;;6061954;23;20022;-77
2023/03/04 06:44:58;;;;;;;23.98;15.05;;;;;;;;;;6040671;23;20581;-77
2023/03/04 06:47:27;;;;;;;32.22;19.60;;;;;;;;;;6070544;23;20021;-77
2023/03/04 06:49:55;;;;;;;24.38;18.10;;;;;;;;;;6063157;23;20344;-77
2023/03/04 06:52:27;;;;;;;20.90;16.98;;;;;;;;;;6047202;23;20030;-77
2023/03/04 06:54:54;;;;;;;23.55;14.68;;;;;;;;;;6040345;23;20019;-77
2023/03/04 06:57:21;;;;;;;28.05;18.55;;;;;;;;;;6065135;23;20015;-77
2023/03/04 06:59:48;;;;;;;25.85;15.55;;;;;;;;;;6039425;23;20018;-77
2023/03/04 07:02:17;;;;;;;26.98;16.83;;;;;;;;;;6063250;23;20019;-77
2023/03/04 07:04:44;;;;;;;22.35;15.23;;;;;;;;;;6064568;23;20022;-77
2023/03/04 07:07:14;;;;;;;23.95;18.80;;;;;;;;;;6066310;23;20015;-76
2023/03/04 07:09:43;;;;;;;24.42;19.80;;;;;;;;;;6064052;23;20034;-77
2023/03/04 07:12:11;;;;;;;23.55;17.52;;;;;;;;;;6038604;23;20483;-77
2023/03/04 07:14:40;;;;;;;28.23;16.88;;;;;;;;;;6064559;23;20026;-77
2023/03/04 07:17:09;;;;;;;21.02;15.18;;;;;;;;;;6040948;23;20499;-77
2023/03/04 07:19:40;;;;;;;21.50;18.27;;;;;;;;;;6063259;23;20022;-77
2023/03/04 07:22:07;;;;;;;30.80;18.67;;;;;;;;;;6065468;23;20019;-76
2023/03/04 07:24:37;;;;;;;25.00;18.38;;;;;;;;;;6039299;23;20019;-77
2023/03/04 07:27:04;;;;;;;26.90;16.52;;;;;;;;;;6064870;23;20022;-77
2023/03/04 07:29:32;;;;;;;26.40;20.48;;;;;;;;;;6039660;23;20015;-77
2023/03/04 07:31:59;;;;;;;21.48;17.42;;;;;;;;;;6064343;23;20023;-77
2023/03/04 07:34:26;;;;;;;28.85;21.08;;;;;;;;;;6067224;23;20026;-77
2023/03/04 07:36:57;;;;;;;24.85;20.65;;;;;;;;;;6064087;23;20027;-77
2023/03/04 07:39:26;;;;;;;25.20;19.25;;;;;;;;;;6073223;23;20023;-77
2023/03/04 07:41:54;;;;;;;24.83;18.17;;;;;;;;;;6063200;23;20019;-77
2023/03/04 07:44:23;;;;;;;31.40;20.75;;;;;;;;;;6067368;23;20022;-77
2023/03/04 07:46:50;;;;;;;28.30;22.88;;;;;;;;;;6064766;23;20015;-77
2023/03/04 07:49:20;;;;;;;31.52;22.42;;;;;;;;;;6065903;23;20352;-77
2023/03/04 07:51:47;;;;;;;32.67;21.65;;;;;;;;;;6040029;23;20042;-77
2023/03/04 07:54:19;;;;;;;30.65;19.67;;;;;;;;;;6038816;23;20034;-77
2023/03/04 07:56:46;;;;;;;30.58;22.80;;;;;;;;;;6063953;23;20023;-77
2023/03/04 07:59:13;;;;;;;28.95;22.45;;;;;;;;;;6040530;23;20347;-78
2023/03/04 08:01:40;;;;;;;40.75;25.40;;;;;;;;;;6066604;23;20356;-77
2023/03/04 08:04:10;;;;;;;29.92;21.27;;;;;;;;;;6064589;23;20031;-77
2023/03/04 08:06:40;;;;;;;36.88;26.05;;;;;;;;;;6065707;23;20018;-78
2023/03/04 08:09:08;;;;;;;37.88;25.38;;;;;;;;;;6064861;23;20015;-78
2023/03/04 08:11:39;;;;;;;37.33;25.13;;;;;;;;;;6066303;23;20015;-78
2023/03/04 08:14:06;;;;;;;45.92;27.90;;;;;;;;;;6067740;23;20026;-78
2023/03/04 08:16:33;;;;;;;26.98;21.55;;;;;;;;;;6067198;23;20383;-78
2023/03/04 08:19:07;;;;;;;34.33;22.70;;;;;;;;;;6074153;23;20359;-78
2023/03/04 08:21:34;;;;;;;34.42;21.50;;;;;;;;;;6064747;23;20349;-78
2023/03/04 08:24:06;;;;;;;36.40;23.10;;;;;;;;;;6070672;23;20015;-78
2023/03/04 08:26:40;;;;;;;33.15;23.10;;;;;;;;;;6039713;23;20361;-77
2023/03/04 08:29:13;;;;;;;35.30;26.52;;;;;;;;;;6040744;23;20030;-78
2023/03/04 08:31:45;;;;;;;31.58;21.23;;;;;;;;;;6042022;23;20463;-78
2023/03/04 08:34:13;;;;;;;42.90;26.38;;;;;;;;;;6064712;23;20015;-78
2023/03/04 08:36:41;;;;;;;36.03;24.67;;;;;;;;;;6065957;23;20360;-78
2023/03/04 08:39:09;;;;;;;40.40;25.85;;;;;;;;;;6064710;23;20015;-78
2023/03/04 08:41:36;;;;;;;40.25;26.17;;;;;;;;;;6041379;23;20076;-78
2023/03/04 08:44:04;;;;;;;39.28;24.42;;;;;;;;;;6065799;23;20058;-78
2023/03/04 08:46:32;;;;;;;34.58;24.33;;;;;;;;;;6018247;23;20027;-79
2023/03/04 08:49:02;;;;;;;41.05;26.45;;;;;;;;;;6074257;23;20015;-79
2023/03/04 08:51:32;;;;;;;37.90;26.92;;;;;;;;;;6063630;23;20014;-79
2023/03/04 08:54:01;;;;;;;38.95;26.23;;;;;;;;;;6065644;23;20019;-80
2023/03/04 08:56:30;;;;;;;35.53;24.90;;;;;;;;;;6075810;23;20069;-80
2023/03/04 08:59:00;;;;;;;42.67;25.58;;;;;;;;;;6039864;23;20025;-80
2023/03/04 09:01:29;;;;;;;37.90;27.15;;;;;;;;;;6065501;23;20022;-81
2023/03/04 09:04:00;;;;;;;39.90;23.95;;;;;;;;;;6064504;23;20034;-79
2023/03/04 09:06:28;;;;;;;42.63;29.60;;;;;;;;;;6040348;23;20023;-78
2023/03/04 09:08:55;;;;;;;32.55;25.77;;;;;;;;;;6064288;23;20015;-80
2023/03/04 09:11:22;;;;;;;36.97;25.98;;;;;;;;;;6066367;23;20021;-81
2023/03/04 09:13:50;;;;;;;41.38;25.75;;;;;;;;;;6065129;23;20020;-79
2023/03/04 09:16:20;;;;;;;43.08;26.27;;;;;;;;;;6041449;23;20045;-79
2023/03/04 09:18:50;;;;;;;39.22;25.27;;;;;;;;;;6039593;23;20328;-79
2023/03/04 09:21:18;;;;;;;43.47;26.17;;;;;;;;;;6065455;23;20015;-79
2023/03/04 09:23:48;;;;;;;36.00;24.35;;;;;;;;;;6068802;23;20025;-79
2023/03/04 09:26:21;;;;;;;31.10;23.00;;;;;;;;;;6067610;23;20023;-79
2023/03/04 09:28:50;;;;;;;33.97;25.95;;;;;;;;;;6074346;23;20014;-79
2023/03/04 09:31:17;;;;;;;44.80;22.42;;;;;;;;;;6077184;23;20011;-79
2023/03/04 09:33:47;;;;;;;33.33;24.25;;;;;;;;;;6040963;23;20023;-79
2023/03/04 09:36:21;;;;;;;36.35;23.27;;;;;;;;;;6076707;23;20022;-79
2023/03/04 09:38:48;;;;;;;37.58;24.83;;;;;;;;;;6064236;23;20023;-79
2023/03/04 09:41:18;;;;;;;34.25;21.60;;;;;;;;;;6065969;23;20189;-79
2023/03/04 09:43:49;;;;;;;37.60;22.67;;;;;;;;;;6039873;23;20030;-79
2023/03/04 09:46:23;;;;;;;36.50;23.48;;;;;;;;;;6068187;23;20025;-79
2023/03/04 09:48:52;;;;;;;33.75;21.33;;;;;;;;;;6076799;23;20011;-79
2023/03/04 09:51:22;;;;;;;39.40;26.73;;;;;;;;;;6066050;23;20022;-79
2023/03/04 09:54:01;;;;;;;29.00;22.10;;;;;;;;;;6065730;23;20019;-79
2023/03/04 09:56:33;;;;;;;28.98;19.02;;;;;;;;;;6077284;23;20015;-79
2023/03/04 09:59:11;;;;;;;32.85;22.45;;;;;;;;;;6043965;23;20370;-79
2023/03/04 10:01:46;;;;;;;34.42;24.70;;;;;;;;;;6082929;23;20014;-79
2023/03/04 10:04:16;;;;;;;33.90;22.05;;;;;;;;;;6046732;23;20034;-79
2023/03/04 10:06:53;;;;;;;30.07;20.70;;;;;;;;;;6048182;23;20030;-78
2023/03/04 10:09:25;;;;;;;32.65;21.17;;;;;;;;;;6060466;23;20025;-79
2023/03/04 10:12:01;;;;;;;32.30;22.45;;;;;;;;;;6069316;23;20062;-80
2023/03/04 10:14:34;;;;;;;30.55;21.60;;;;;;;;;;6089393;23;20085;-79
2023/03/04 10:17:09;;;;;;;26.53;21.43;;;;;;;;;;6044475;23;20027;-78
2023/03/04 10:19:48;;;;;;;42.38;28.20;;;;;;;;;;6077014;23;20021;-78
2023/03/04 10:22:22;;;;;;;31.60;23.38;;;;;;;;;;6052637;23;20018;-79
2023/03/04 10:24:53;;;;;;;36.45;24.52;;;;;;;;;;6041474;23;20025;-78
2023/03/04 10:27:22;;;;;;;35.65;21.77;;;;;;;;;;6066642;23;20026;-79
2023/03/04 10:29:54;;;;;;;29.35;20.83;;;;;;;;;;6016600;23;20026;-79
2023/03/04 10:32:23;;;;;;;38.85;24.17;;;;;;;;;;6064951;23;20011;-79
2023/03/04 10:34:53;;;;;;;33.25;20.92;;;;;;;;;;6040417;23;20072;-79
2023/03/04 10:37:24;;;;;;;29.15;21.95;;;;;;;;;;6063888;23;20026;-79
2023/03/04 10:39:51;;;;;;;34.70;23.08;;;;;;;;;;6064781;23;20015;-79
2023/03/04 10:42:35;;;;;;;36.65;22.67;;;;;;;;;;6064036;23;20027;-79
2023/03/04 10:45:20;;;;;;;32.85;20.88;;;;;;;;;;6075202;23;20025;-79
2023/03/04 10:47:58;;;;;;;30.25;19.90;;;;;;;;;;6041191;23;20030;-79
2023/03/04 10:50:28;;;;;;;25.35;18.17;;;;;;;;;;6075923;23;20019;-79
2023/03/04 10:53:02;;;;;;;32.75;20.00;;;;;;;;;;6073983;23;20031;-79
2023/03/04 10:55:30;;;;;;;25.90;19.13;;;;;;;;;;6066068;23;20015;-79
2023/03/04 10:58:04;;;;;;;32.47;19.58;;;;;;;;;;6075707;23;20015;-79
2023/03/04 11:00:37;;;;;;;25.13;19.00;;;;;;;;;;6040692;23;20022;-79
2023/03/04 11:03:23;;;;;;;21.30;16.20;;;;;;;;;;6064917;23;20026;-79
2023/03/04 11:05:52;;;;;;;26.80;17.52;;;;;;;;;;6040964;23;20019;-79
2023/03/04 11:08:23;;;;;;;21.92;16.38;;;;;;;;;;6066399;23;20022;-79
2023/03/04 11:10:53;;;;;;;24.50;16.52;;;;;;;;;;6066460;23;20363;-79
2023/03/04 11:13:23;;;;;;;27.65;15.82;;;;;;;;;;6065982;23;20019;-79
2023/03/04 11:15:55;;;;;;;22.58;16.73;;;;;;;;;;6016430;23;20026;-79
2023/03/04 11:18:26;;;;;;;21.20;15.43;;;;;;;;;;6040639;23;20351;-79
2023/03/04 11:20:57;;;;;;;23.38;15.77;;;;;;;;;;6040471;23;20030;-79
2023/03/04 11:23:33;;;;;;;22.70;16.45;;;;;;;;;;6016790;23;20018;-79
2023/03/04 11:26:06;;;;;;;21.20;15.77;;;;;;;;;;6075987;23;20022;-79
2023/03/04 11:28:40;;;;;;;21.08;14.30;;;;;;;;;;6017159;23;20022;-79
2023/03/04 11:31:10;;;;;;;22.58;15.98;;;;;;;;;;6074548;23;20011;-79
2023/03/04 11:33:44;;;;;;;17.65;14.88;;;;;;;;;;6018263;23;20023;-79
2023/03/04 11:36:23;;;;;;;18.67;12.60;;;;;;;;;;6075924;23;20015;-79
2023/03/04 11:38:55;;;;;;;18.92;15.23;;;;;;;;;;6077562;23;20021;-79
2023/03/04 11:41:25;;;;;;;23.65;15.13;;;;;;;;;;6067757;23;20363;-79
2023/03/04 11:43:52;;;;;;;24.48;16.50;;;;;;;;;;6067612;23;20022;-79
2023/03/04 11:46:42;;;;;;;19.13;14.05;;;;;;;;;;6066158;23;20019;-79
2023/03/04 11:49:22;;;;;;;20.35;14.57;;;;;;;;;;6042095;23;20031;-79
2023/03/04 11:51:55;;;;;;;18.15;12.65;;;;;;;;;;6042890;23;20026;-79
2023/03/04 11:54:29;;;;;;;19.25;13.73;;;;;;;;;;6044093;23;20011;-79
2023/03/04 11:57:00;;;;;;;20.73;15.05;;;;;;;;;;6052212;23;20459;-79
2023/03/04 11:59:40;;;;;;;16.10;12.90;;;;;;;;;;6067564;23;20015;-80
2023/03/04 12:02:16;;;;;;;19.73;12.40;;;;;;;;;;6075323;23;20018;-79
2023/03/04 12:05:05;;;;;;;17.30;13.77;;;;;;;;;;6067968;23;20011;-78
2023/03/04 12:08:17;;;;;;;17.13;11.68;;;;;;;;;;6077197;23;20026;-78
2023/03/04 12:10:50;;;;;;;18.60;12.38;;;;;;;;;;6090399;23;20320;-78
2023/03/04 12:13:42;;;;;;;14.85;9.70;;;;;;;;;;6075086;23;20015;-78
2023/03/04 12:16:29;;;;;;;17.35;12.98;;;;;;;;;;6059271;23;20042;-78
2023/03/04 12:19:05;;;;;;;17.58;12.52;;;;;;;;;;6075531;23;20548;-78
2023/03/04 12:21:47;;;;;;;25.50;14.80;;;;;;;;;;6077467;23;20018;-78
2023/03/04 12:24:40;;;;;;;23.63;13.63;;;;;;;;;;6068992;23;20041;-78
2023/03/04 12:27:14;;;;;;;22.75;12.18;;;;;;;;;;6075747;23;20022;-78
2023/03/04 12:29:47;;;;;;;16.77;13.55;;;;;;;;;;6065399;23;20026;-78
2023/03/04 12:32:20;;;;;;;18.35;13.57;;;;;;;;;;6075023;23;20018;-78
2023/03/04 12:35:01;;;;;;;19.20;13.13;;;;;;;;;;6065377;23;20030;-78
2023/03/04 12:37:44;;;;;;;17.77;11.13;;;;;;;;;;6077319;23;20022;-78
2023/03/04 12:40:26;;;;;;;15.57;11.75;;;;;;;;;;6076564;23;20355;-78
2023/03/04 12:43:06;;;;;;;19.90;10.95;;;;;;;;;;6076804;23;20010;-78
2023/03/04 12:45:40;;;;;;;20.38;10.20;;;;;;;;;;6075959;23;20015;-78
2023/03/04 12:48:16;;;;;;;16.83;11.48;;;;;;;;;;6077350;23;20344;-78
2023/03/04 12:50:52;;;;;;;22.90;11.32;;;;;;;;;;6067172;23;20347;-78
2023/03/04 12:53:25;;;;;;;16.70;12.73;;;;;;;;;;6041851;23;20015;-78
2023/03/04 12:55:55;;;;;;;22.52;11.45;;;;;;;;;;6075782;23;20038;-78
2023/03/04 12:58:26;;;;;;;28.10;12.35;;;;;;;;;;6076985;23;20015;-78
2023/03/04 13:01:00;;;;;;;16.55;10.65;;;;;;;;;;6041675;23;20022;-78
2023/03/04 13:03:36;;;;;;;17.00;11.45;;;;;;;;;;6073104;23;20011;-78
2023/03/04 13:06:23;;;;;;;22.50;11.27;;;;;;;;;;6064917;23;20042;-78
2023/03/04 13:08:56;;;;;;;18.23;10.75;;;;;;;;;;6076278;23;20075;-78
2023/03/04 13:11:53;;;;;;;18.08;12.32;;;;;;;;;;6077264;23;20022;-78
2023/03/04 13:14:28;;;;;;;18.67;10.48;;;;;;;;;;6065550;23;20030;-78
2023/03/04 13:17:01;;;;;;;16.75;11.15;;;;;;;;;;6075439;23;20021;-78
2023/03/04 13:19:49;;;;;;;16.77;10.18;;;;;;;;;;6064927;23;20034;-78
2023/03/04 13:22:42;;;;;;;19.27;12.30;;;;;;;;;;6065979;23;20054;-78
2023/03/04 13:25:42;;;;;;;21.52;10.25;;;;;;;;;;6064922;23;20030;-78
2023/03/04 13:28:17;;;;;;;17.05;9.00;;;;;;;;;;6012434;23;20035;-78
2023/03/04 13:31:32;;;;;;;13.73;10.00;;;;;;;;;;6062803;23;20359;-78
2023/03/04 13:34:04;;;;;;;16.00;10.35;;;;;;;;;;6071126;23;20026;-78
2023/03/04 13:36:55;;;;;;;14.60;9.05;;;;;;;;;;6075545;23;20022;-78
2023/03/04 13:39:32;;;;;;;18.52;9.63;;;;;;;;;;6076510;23;20015;-78
2023/03/04 13:42:00;;;;;;;20.63;10.73;;;;;;;;;;6075064;23;20321;-78
2023/03/04 13:44:58;;;;;;;13.73;9.38;;;;;;;;;;6064938;23;20021;-78
2023/03/04 13:47:33;;;;;;;19.95;12.48;;;;;;;;;;6075277;23;20231;-78
2023/03/04 13:50:24;;;;;;;16.45;10.70;;;;;;;;;;6073584;23;20450;-78
2023/03/04 13:52:54;;;;;;;12.43;9.82;;;;;;;;;;6075459;23;20014;-78
2023/03/04 13:55:39;;;;;;;15.88;10.10;;;;;;;;;;6065980;23;20019;-78
2023/03/04 13:58:18;;;;;;;20.50;10.48;;;;;;;;;;6076583;23;20014;-78
2023/03/04 14:00:51;;;;;;;20.55;11.98;;;;;;;;;;6041523;23;20351;-78
2023/03/04 14:03:23;;;;;;;20.85;12.02;;;;;;;;;;6065018;23;20015;-78
2023/03/04 14:06:12;;;;;;;25.65;15.48;;;;;;;;;;6041086;23;20019;-78
2023/03/04 14:08:39;;;;;;;23.00;15.02;;;;;;;;;;6074265;23;20018;-78
2023/03/04 14:11:13;;;;;;;26.88;17.10;;;;;;;;;;6065557;23;20023;-78
2023/03/04 14:13:40;;;;;;;35.88;21.63;;;;;;;;;;6039992;23;20023;-78
2023/03/04 14:16:07;;;;;;;29.00;16.13;;;;;;;;;;6066740;23;20022;-78
2023/03/04 14:18:35;;;;;;;36.85;23.83;;;;;;;;;;6064668;23;20015;-78
2023/03/04 14:21:03;;;;;;;30.48;19.13;;;;;;;;;;6065571;23;20022;-78
2023/03/04 14:23:33;;;;;;;28.42;17.38;;;;;;;;;;6064357;23;20015;-78
2023/03/04 14:26:10;;;;;;;32.85;16.30;;;;;;;;;;6074561;23;20452;-78
2023/03/04 14:28:45;;;;;;;28.98;18.48;;;;;;;;;;6074245;23;20015;-78
2023/03/04 14:31:17;;;;;;;26.67;19.58;;;;;;;;;;6041565;23;20352;-78
2023/03/04 14:33:47;;;;;;;28.17;15.15;;;;;;;;;;6070730;23;20035;-78
2023/03/04 14:36:19;;;;;;;26.13;15.18;;;;;;;;;;6075057;23;20011;-78
2023/03/04 14:38:53;;;;;;;22.42;16.05;;;;;;;;;;6064611;23;20352;-80